Aurora, Oregon
Current Conditions -  °F | °C
As of 7:53 PM on Thursday 18 Dec 2014 (Local Time) from KUAO Reporting Station
Overcast Overcast  
Wind Chill: 51°   Ceiling: 4900
Heat Index: 51°   Visibility: 10mi
Dew Point: 45°   Wind: 3mph
Humidity: 80%   Direction: 170°S
Pressure: 29.79"   Gusts: NA
Location:  45.23°N, 122.76°W
Report Text: KUAO 190353Z AUTO 17003KT 10SM OVC049 11/07 A2979 RMK AO2 RAB01E43 SLP090 P0000 T01060072
Loading
Personal Weather Stations






























Interactive Weather Map New forecast layout! Learn more

10-Day Weather Forecast

Advertisements
Track Severe Weather on mobile